createdAt,value
2019-03-28T00:00:44.487Z,9.70
2019-03-28T00:03:32.731Z,9.70
2019-03-28T00:06:04.202Z,9.70
2019-03-28T00:08:40.317Z,9.70
2019-03-28T00:11:10.366Z,9.70
2019-03-28T00:13:47.179Z,9.70
2019-03-28T00:16:18.373Z,9.70
2019-03-28T00:18:50.287Z,9.60
2019-03-28T00:21:20.274Z,9.60
2019-03-28T00:24:19.426Z,9.60
2019-03-28T00:26:57.379Z,9.60
2019-03-28T00:29:29.266Z,9.60
2019-03-28T00:31:59.304Z,9.50
2019-03-28T00:34:29.658Z,9.50
2019-03-28T00:37:00.648Z,9.50
2019-03-28T00:39:30.534Z,9.40
2019-03-28T00:42:01.792Z,9.40
2019-03-28T00:44:32.091Z,9.40
2019-03-28T00:47:01.882Z,9.40
2019-03-28T00:49:31.896Z,9.40
2019-03-28T00:52:02.616Z,9.40
2019-03-28T00:54:33.750Z,9.40
2019-03-28T00:57:04.940Z,9.40
2019-03-28T00:59:38.900Z,9.40
2019-03-28T01:02:14.202Z,9.30
2019-03-28T01:04:50.223Z,9.30
2019-03-28T01:07:22.517Z,9.30
2019-03-28T01:09:52.468Z,9.40
2019-03-28T01:12:46.328Z,9.40
2019-03-28T01:15:31.658Z,9.30
2019-03-28T01:18:03.666Z,9.30
2019-03-28T01:20:33.530Z,9.30
2019-03-28T01:23:03.405Z,9.30
2019-03-28T01:25:33.374Z,9.30
2019-03-28T01:28:03.237Z,9.30
2019-03-28T01:30:33.164Z,9.30
2019-03-28T01:33:05.202Z,9.30
2019-03-28T01:35:37.174Z,9.30
2019-03-28T01:38:08.211Z,9.30
2019-03-28T01:40:39.201Z,9.30
2019-03-28T01:43:10.116Z,9.30
2019-03-28T01:45:43.387Z,9.30
2019-03-28T01:48:14.938Z,9.30
2019-03-28T01:50:55.908Z,9.30
2019-03-28T01:53:26.992Z,9.30
2019-03-28T01:56:04.745Z,9.30
2019-03-28T01:58:35.821Z,9.30
2019-03-28T02:01:06.353Z,9.30
2019-03-28T02:03:40.299Z,9.30
2019-03-28T02:06:12.499Z,9.20
2019-03-28T02:08:42.441Z,9.30
2019-03-28T02:11:12.441Z,9.20
2019-03-28T02:13:46.343Z,9.30
2019-03-28T02:16:18.359Z,9.20
2019-03-28T02:18:50.445Z,9.20
2019-03-28T02:21:21.501Z,9.20
2019-03-28T02:24:02.577Z,9.20
2019-03-28T02:26:39.301Z,9.20
2019-03-28T02:29:09.230Z,9.20
2019-03-28T02:31:39.536Z,9.20
2019-03-28T02:34:09.439Z,9.20
2019-03-28T02:36:39.380Z,9.20
2019-03-28T02:39:09.359Z,9.20
2019-03-28T02:41:50.435Z,9.20
2019-03-28T02:44:26.432Z,9.20
2019-03-28T02:46:59.509Z,9.20
2019-03-28T02:49:29.443Z,9.10
2019-03-28T02:51:59.406Z,9.10
2019-03-28T02:54:31.634Z,9.10
2019-03-28T02:57:09.855Z,9.10
2019-03-28T02:59:53.099Z,9.10
2019-03-28T03:02:24.907Z,9.00
2019-03-28T03:05:05.361Z,9.00
2019-03-28T03:08:09.775Z,9.00
2019-03-28T03:11:22.749Z,9.00
2019-03-28T03:13:53.079Z,9.00
2019-03-28T03:16:23.039Z,9.00
2019-03-28T03:18:52.896Z,9.00
2019-03-28T03:21:22.753Z,9.00
2019-03-28T03:23:56.752Z,9.00
2019-03-28T03:26:31.204Z,9.00
2019-03-28T03:29:01.065Z,9.00
2019-03-28T03:31:31.005Z,9.00
2019-03-28T03:34:01.033Z,8.90
2019-03-28T03:36:34.120Z,8.90
2019-03-28T03:39:05.485Z,8.90
2019-03-28T03:41:47.506Z,8.90
2019-03-28T03:44:19.422Z,8.90
2019-03-28T03:46:51.384Z,8.90
2019-03-28T03:49:21.304Z,8.90
2019-03-28T03:51:52.718Z,8.80
2019-03-28T03:54:29.367Z,8.80
2019-03-28T03:57:01.221Z,8.70
2019-03-28T03:59:31.209Z,8.70
2019-03-28T04:02:01.165Z,8.70
2019-03-28T04:04:32.321Z,8.60
2019-03-28T04:07:03.401Z,8.50
2019-03-28T04:09:33.394Z,8.60
2019-03-28T04:12:04.485Z,8.60
2019-03-28T04:14:34.369Z,8.60
2019-03-28T04:17:04.425Z,8.60
2019-03-28T04:19:37.526Z,8.60
2019-03-28T04:22:09.928Z,8.60
2019-03-28T04:24:40.361Z,8.60
2019-03-28T04:27:10.550Z,8.60
2019-03-28T04:29:41.628Z,8.60
2019-03-28T04:32:11.564Z,8.60
2019-03-28T04:34:41.557Z,8.60
2019-03-28T04:37:17.584Z,8.60
2019-03-28T04:39:48.743Z,8.70
2019-03-28T04:42:20.618Z,8.60
2019-03-28T04:44:50.583Z,8.70
2019-03-28T04:47:34.450Z,8.70
2019-03-28T04:50:12.191Z,8.70
2019-03-28T04:52:48.225Z,8.70
2019-03-28T04:55:18.212Z,8.70
2019-03-28T04:57:57.445Z,8.60
2019-03-28T05:00:27.347Z,8.60
2019-03-28T05:02:59.293Z,8.60
2019-03-28T05:05:29.331Z,8.70
2019-03-28T05:07:59.605Z,8.70
2019-03-28T05:10:34.950Z,8.70
2019-03-28T05:13:05.181Z,8.60
2019-03-28T05:15:37.493Z,8.60
2019-03-28T05:18:07.379Z,8.60
2019-03-28T05:20:41.827Z,8.60
2019-03-28T05:23:17.905Z,8.60
2019-03-28T05:25:50.601Z,8.70
2019-03-28T05:28:22.637Z,8.70
2019-03-28T05:30:53.817Z,8.60
2019-03-28T05:33:25.904Z,8.60
2019-03-28T05:35:56.144Z,8.60
2019-03-28T05:38:27.361Z,8.60
2019-03-28T05:40:58.795Z,8.60
2019-03-28T05:43:28.649Z,8.60
2019-03-28T05:46:04.792Z,8.60
2019-03-28T05:48:34.628Z,8.60
2019-03-28T05:51:04.600Z,8.60
2019-03-28T05:53:34.832Z,8.60
2019-03-28T05:56:05.608Z,8.60
2019-03-28T05:58:35.510Z,8.60
2019-03-28T06:01:07.153Z,8.60
2019-03-28T06:03:37.062Z,8.50
2019-03-28T06:06:07.170Z,8.60
2019-03-28T06:08:37.384Z,8.60
2019-03-28T06:11:07.602Z,8.60
2019-03-28T06:13:37.483Z,8.60
2019-03-28T06:16:07.531Z,8.70
2019-03-28T06:18:38.627Z,8.70
2019-03-28T06:21:08.464Z,8.70
2019-03-28T06:23:39.365Z,8.80
2019-03-28T06:26:09.579Z,8.90
2019-03-28T06:28:39.434Z,8.90
2019-03-28T06:31:10.616Z,8.90
2019-03-28T06:33:40.967Z,8.90
2019-03-28T06:36:17.054Z,9.00
2019-03-28T06:38:48.181Z,9.00
2019-03-28T06:41:20.091Z,9.00
2019-03-28T06:43:50.127Z,9.10
2019-03-28T06:46:19.898Z,9.10
2019-03-28T06:48:51.071Z,9.20
2019-03-28T06:51:21.074Z,9.30
2019-03-28T06:53:53.084Z,9.40
2019-03-28T06:56:25.421Z,9.40
2019-03-28T06:58:55.657Z,9.40
2019-03-28T07:01:25.941Z,9.40
2019-03-28T07:03:55.955Z,9.40
2019-03-28T07:06:41.534Z,9.40
2019-03-28T07:09:13.775Z,9.40
2019-03-28T07:11:46.902Z,9.40
2019-03-28T07:14:17.151Z,9.40
2019-03-28T07:16:47.181Z,9.40
2019-03-28T07:19:17.141Z,9.50
2019-03-28T07:21:47.049Z,9.40
2019-03-28T07:24:19.922Z,9.40
2019-03-28T07:26:49.807Z,9.40
2019-03-28T07:29:26.636Z,9.40
2019-03-28T07:31:58.666Z,9.40
2019-03-28T07:34:31.732Z,9.40
2019-03-28T07:37:03.807Z,9.40
2019-03-28T07:39:35.155Z,9.50
2019-03-28T07:42:06.828Z,9.50
2019-03-28T07:44:37.667Z,9.50
2019-03-28T07:47:15.127Z,9.60
2019-03-28T07:50:01.222Z,9.70
2019-03-28T07:52:33.258Z,9.80
2019-03-28T07:55:03.533Z,10.00
2019-03-28T07:57:37.088Z,10.10
2019-03-28T08:00:09.569Z,10.10
2019-03-28T08:02:42.578Z,10.10
2019-03-28T08:05:13.546Z,10.10
2019-03-28T08:07:45.763Z,10.10
2019-03-28T08:10:19.491Z,10.20
2019-03-28T08:12:49.631Z,10.30
2019-03-28T08:15:19.622Z,10.40
2019-03-28T08:17:50.689Z,10.50
2019-03-28T08:20:20.770Z,10.70
2019-03-28T08:22:50.983Z,10.80
2019-03-28T08:25:20.884Z,10.90
2019-03-28T08:27:50.879Z,10.90
2019-03-28T08:30:35.165Z,11.00
2019-03-28T08:33:06.244Z,11.10
2019-03-28T08:35:43.517Z,11.20
2019-03-28T08:38:13.338Z,11.40
2019-03-28T08:40:47.059Z,11.50
2019-03-28T08:43:18.149Z,11.70
2019-03-28T08:45:48.048Z,11.80
2019-03-28T08:48:17.961Z,12.00
2019-03-28T08:50:47.893Z,12.10
2019-03-28T08:53:25.237Z,12.30
2019-03-28T08:55:56.317Z,12.40
2019-03-28T08:58:26.235Z,12.50
2019-03-28T09:00:57.384Z,12.40
2019-03-28T09:03:33.498Z,12.30
2019-03-28T09:06:03.420Z,12.00
2019-03-28T09:08:33.285Z,11.80
2019-03-28T09:11:09.134Z,11.70
2019-03-28T09:13:45.846Z,11.50
2019-03-28T09:16:29.717Z,11.50
2019-03-28T09:18:59.522Z,11.40
2019-03-28T09:21:31.501Z,11.40
2019-03-28T09:24:04.824Z,11.30
2019-03-28T09:26:36.670Z,11.30
2019-03-28T09:29:06.711Z,11.40
2019-03-28T09:31:38.580Z,11.60
2019-03-28T09:34:13.453Z,11.80
2019-03-28T09:36:43.291Z,12.20
2019-03-28T09:39:13.247Z,12.50
2019-03-28T09:41:45.207Z,12.60
2019-03-28T09:44:20.512Z,12.70
2019-03-28T09:46:56.650Z,12.80
2019-03-28T09:49:32.634Z,12.70
2019-03-28T09:52:04.619Z,12.80
2019-03-28T09:54:43.400Z,12.70
2019-03-28T09:57:13.380Z,12.70
2019-03-28T09:59:50.221Z,12.70
2019-03-28T10:02:20.180Z,12.60
2019-03-28T10:04:55.562Z,12.60
2019-03-28T10:07:33.826Z,12.70
2019-03-28T10:10:05.353Z,12.70
2019-03-28T10:12:44.247Z,12.90
2019-03-28T10:15:20.470Z,13.10
2019-03-28T10:17:51.598Z,13.20
2019-03-28T10:20:23.560Z,13.20
2019-03-28T10:22:54.732Z,13.00
2019-03-28T10:25:24.622Z,13.00
2019-03-28T10:27:56.581Z,13.10
2019-03-28T10:30:51.562Z,13.10
2019-03-28T10:33:27.619Z,13.10
2019-03-28T10:36:03.887Z,13.20
2019-03-28T10:38:33.907Z,13.10
2019-03-28T10:41:03.709Z,12.90
2019-03-28T10:43:35.848Z,13.00
2019-03-28T10:46:12.663Z,13.00
2019-03-28T10:48:43.535Z,13.00
2019-03-28T10:51:16.602Z,13.10
2019-03-28T10:53:46.528Z,13.10
2019-03-28T10:56:22.059Z,13.10
2019-03-28T10:58:47.987Z,13.00
2019-03-28T11:01:32.447Z,12.90
2019-03-28T11:03:49.476Z,12.80
2019-03-28T11:06:20.617Z,12.70
2019-03-28T11:08:50.515Z,12.60
2019-03-28T11:11:22.606Z,12.60
2019-03-28T11:13:52.910Z,12.60
2019-03-28T11:16:25.955Z,12.60
2019-03-28T11:18:55.920Z,12.70
2019-03-28T11:21:25.903Z,12.60
2019-03-28T11:23:55.757Z,12.70
2019-03-28T11:26:26.937Z,12.70
2019-03-28T11:29:03.023Z,12.70
2019-03-28T11:31:46.259Z,12.70
2019-03-28T11:34:08.537Z,12.70
2019-03-28T11:36:38.502Z,12.80
2019-03-28T11:39:15.295Z,12.80
2019-03-28T11:41:45.273Z,12.90
2019-03-28T11:44:21.299Z,12.90
2019-03-28T11:47:10.123Z,13.00
2019-03-28T11:49:40.315Z,13.10
2019-03-28T11:52:10.263Z,13.20
2019-03-28T11:54:40.231Z,13.20
2019-03-28T11:57:10.142Z,13.20
2019-03-28T11:59:40.007Z,13.30
2019-03-28T12:02:19.738Z,13.40
2019-03-28T12:04:43.215Z,13.40
2019-03-28T12:07:13.090Z,13.40
2019-03-28T12:09:43.890Z,13.30
2019-03-28T12:12:14.978Z,13.40
2019-03-28T12:14:46.105Z,13.40
2019-03-28T12:17:16.042Z,13.50
2019-03-28T12:19:45.951Z,13.50
2019-03-28T12:22:15.866Z,13.50
2019-03-28T12:24:55.214Z,13.40
2019-03-28T12:27:25.094Z,13.50
2019-03-28T12:29:54.982Z,13.60
2019-03-28T12:32:25.020Z,13.60
2019-03-28T12:35:02.612Z,13.70
2019-03-28T12:37:32.654Z,13.70
2019-03-28T12:40:03.381Z,13.80
2019-03-28T12:42:34.409Z,13.70
2019-03-28T12:45:04.810Z,13.70
2019-03-28T12:47:51.034Z,13.60
2019-03-28T12:50:21.007Z,13.60
2019-03-28T12:52:52.131Z,13.70
2019-03-28T12:55:23.235Z,13.80
2019-03-28T12:57:53.190Z,13.70
2019-03-28T13:00:36.953Z,13.70
2019-03-28T13:03:06.958Z,13.70
2019-03-28T13:05:47.878Z,13.70
2019-03-28T13:08:17.993Z,13.70
2019-03-28T13:10:48.114Z,13.80
2019-03-28T13:13:18.029Z,13.90
2019-03-28T13:15:48.029Z,13.90
2019-03-28T13:19:02.237Z,13.90
2019-03-28T13:22:15.551Z,13.90
2019-03-28T13:24:54.408Z,13.90
2019-03-28T13:27:34.511Z,13.90
2019-03-28T13:30:04.452Z,14.00
2019-03-28T13:32:41.662Z,14.00
2019-03-28T13:35:09.698Z,14.00
2019-03-28T13:37:39.546Z,14.00
2019-03-28T13:40:13.120Z,14.00
2019-03-28T13:42:43.066Z,14.10
2019-03-28T13:45:15.036Z,14.10
2019-03-28T13:47:48.035Z,14.10
2019-03-28T13:50:35.038Z,14.00
2019-03-28T13:53:14.668Z,13.70
2019-03-28T13:55:44.699Z,13.50
2019-03-28T13:58:14.878Z,13.50
2019-03-28T14:00:44.765Z,13.50
2019-03-28T14:03:20.883Z,13.40
2019-03-28T14:05:50.724Z,13.40
2019-03-28T14:08:28.473Z,13.30
2019-03-28T14:10:58.357Z,13.30
2019-03-28T14:13:30.319Z,13.30
2019-03-28T14:16:05.719Z,13.40
2019-03-28T14:18:40.798Z,13.40
2019-03-28T14:21:10.707Z,13.40
2019-03-28T14:23:44.579Z,13.40
2019-03-28T14:26:15.479Z,13.40
2019-03-28T14:28:56.611Z,13.40
2019-03-28T14:31:35.376Z,13.40
2019-03-28T14:34:07.013Z,13.30
2019-03-28T14:36:36.923Z,13.40
2019-03-28T14:39:08.246Z,13.30
2019-03-28T14:41:46.348Z,13.40
2019-03-28T14:44:27.846Z,13.60
2019-03-28T14:47:05.723Z,13.50
2019-03-28T14:49:35.565Z,13.40
2019-03-28T14:52:07.548Z,13.40
2019-03-28T14:54:47.696Z,13.40
2019-03-28T14:57:18.060Z,13.40
2019-03-28T14:59:49.968Z,13.50
2019-03-28T15:02:19.844Z,13.60
2019-03-28T15:04:50.706Z,13.70
2019-03-28T15:07:27.468Z,13.70
2019-03-28T15:09:57.330Z,13.50
2019-03-28T15:12:33.398Z,13.40
2019-03-28T15:15:28.898Z,13.40
2019-03-28T15:18:16.837Z,13.40
2019-03-28T15:20:58.546Z,13.50
2019-03-28T15:23:34.993Z,13.60
2019-03-28T15:26:07.101Z,13.50
2019-03-28T15:28:37.244Z,13.40
2019-03-28T15:31:10.102Z,13.40
2019-03-28T15:33:40.194Z,13.40
2019-03-28T15:36:10.232Z,13.40
2019-03-28T15:38:40.216Z,13.30
2019-03-28T15:41:10.235Z,13.30
2019-03-28T15:43:40.100Z,13.30
2019-03-28T15:46:09.996Z,13.20
2019-03-28T15:48:40.008Z,13.20
2019-03-28T15:51:12.073Z,13.30
2019-03-28T15:53:44.167Z,13.20
2019-03-28T15:56:15.488Z,13.30
2019-03-28T15:58:55.515Z,13.20
2019-03-28T16:01:25.445Z,13.20
2019-03-28T16:03:55.302Z,13.20
2019-03-28T16:06:25.197Z,13.20
2019-03-28T16:08:55.204Z,13.20
2019-03-28T16:11:25.064Z,13.10
2019-03-28T16:13:55.784Z,13.10
2019-03-28T16:16:35.711Z,13.20
2019-03-28T16:19:06.260Z,13.20
2019-03-28T16:21:36.216Z,13.30
2019-03-28T16:24:07.401Z,13.30
2019-03-28T16:26:47.965Z,13.30
2019-03-28T16:29:17.917Z,13.30
2019-03-28T16:31:47.757Z,13.20
2019-03-28T16:34:17.753Z,13.20
2019-03-28T16:36:47.677Z,13.30
2019-03-28T16:39:18.783Z,13.30
2019-03-28T16:41:55.301Z,13.30
2019-03-28T16:44:25.113Z,13.30
2019-03-28T16:46:54.993Z,13.20
